Time;durP1;ratioP1;P1;durP2;ratioP2;P2;SDS_P1;SDS_P2;PMS_P1;PMS_P2;Temp;Humidity;BMP_temperature;BMP_pressure;BME280_temperature;BME280_humidity;BME280_pressure;Samples;Min_cycle;Max_cycle;Signal;HPM_P1;HPM_P2
2023/12/25 00:02:34;;;;;;;18.00;10.00;;;;;;;9.93;58.24;100806.97;5089191;28;20048;-85
2023/12/25 00:05:29;;;;;;;20.23;10.70;;;;;;;9.86;58.44;100801.16;5078495;28;20045;-85
2023/12/25 00:08:21;;;;;;;19.02;11.15;;;;;;;9.58;59.54;100797.75;5079211;28;20047;-85
2023/12/25 00:11:16;;;;;;;25.60;12.20;;;;;;;9.58;59.69;100813.25;5077036;28;20044;-85
2023/12/25 00:14:11;;;;;;;18.55;9.32;;;;;;;9.49;60.69;100809.66;5082636;28;20427;-85
2023/12/25 00:17:05;;;;;;;20.17;11.70;;;;;;;9.52;60.00;100815.25;5067238;28;20051;-85
2023/12/25 00:19:57;;;;;;;17.07;10.70;;;;;;;9.62;59.37;100820.47;5086438;28;20047;-85
2023/12/25 00:22:49;;;;;;;21.95;12.68;;;;;;;9.51;60.67;100816.38;5085980;28;20047;-85
2023/12/25 00:25:39;;;;;;;16.17;9.85;;;;;;;9.48;61.53;100818.91;5081037;28;20037;-85
2023/12/25 00:28:31;;;;;;;20.45;14.38;;;;;;;9.57;60.94;100814.34;5087061;28;20528;-85
2023/12/25 00:31:23;;;;;;;23.40;13.30;;;;;;;9.57;60.71;100822.50;5074966;28;20051;-85
2023/12/25 00:34:18;;;;;;;24.30;13.93;;;;;;;9.42;61.06;100827.16;5086043;28;20031;-84
2023/12/25 00:37:11;;;;;;;;;;;;;;;9.42;61.32;100831.78;5075314;28;20043;-85
2023/12/25 00:40:05;;;;;;;23.63;12.88;;;;;;;9.51;60.57;100837.28;5079874;28;20373;-85
2023/12/25 00:42:57;;;;;;;23.48;12.52;;;;;;;9.37;60.99;100831.88;5075271;28;20615;-85
2023/12/25 00:45:49;;;;;;;22.35;12.60;;;;;;;9.41;61.69;100830.97;5075939;28;20040;-85
2023/12/25 00:48:41;;;;;;;20.92;11.73;;;;;;;9.42;61.12;100838.00;5069371;28;20063;-85
2023/12/25 00:51:36;;;;;;;21.25;12.15;;;;;;;9.42;61.70;100835.28;5089742;28;20062;-85
2023/12/25 00:54:31;;;;;;;30.53;12.60;;;;;;;9.50;61.64;100830.25;5087773;28;20043;-84
2023/12/25 00:57:26;;;;;;;21.88;10.45;;;;;;;9.29;61.42;100825.28;5083812;28;20041;-85
2023/12/25 01:00:18;;;;;;;21.83;12.70;;;;;;;9.40;60.99;100821.22;5075398;28;20052;-84
2023/12/25 01:03:12;;;;;;;21.55;12.23;;;;;;;9.38;61.83;100825.34;5084249;28;20041;-85
2023/12/25 01:06:07;;;;;;;24.52;12.60;;;;;;;9.53;60.34;100825.03;5090941;28;20051;-84
2023/12/25 01:08:59;;;;;;;16.67;9.50;;;;;;;9.32;60.65;100834.72;5091020;28;20047;-85
2023/12/25 01:11:48;;;;;;;16.15;9.60;;;;;;;9.47;60.02;100825.44;5073992;28;20282;-84
2023/12/25 01:14:43;;;;;;;22.13;13.02;;;;;;;9.24;59.89;100817.25;5085289;28;20051;-85
2023/12/25 01:17:35;;;;;;;12.73;8.25;;;;;;;9.31;60.17;100828.47;5083449;28;20063;-84
2023/12/25 01:20:31;;;;;;;24.38;10.68;;;;;;;9.36;59.04;100831.06;5083033;28;20052;-85
2023/12/25 01:23:23;;;;;;;19.17;12.25;;;;;;;9.49;58.83;100826.75;5089100;28;20051;-84
2023/12/25 01:26:18;;;;;;;20.23;9.95;;;;;;;9.66;58.49;100839.66;5087766;28;20056;-84
2023/12/25 01:29:14;;;;;;;20.13;10.38;;;;;;;9.80;57.57;100837.72;5072883;28;20039;-84
2023/12/25 01:32:07;;;;;;;13.80;8.50;;;;;;;9.77;58.05;100830.97;5083918;28;20043;-85
2023/12/25 01:35:04;;;;;;;19.00;11.40;;;;;;;9.54;58.48;100837.50;5083207;28;20047;-84
2023/12/25 01:37:59;;;;;;;22.08;14.15;;;;;;;9.43;60.25;100845.06;5084082;28;20047;-84
2023/12/25 01:40:54;;;;;;;33.20;16.40;;;;;;;9.23;60.95;100836.53;5071546;28;20051;-84
2023/12/25 01:43:48;;;;;;;28.40;17.23;;;;;;;9.11;62.17;100842.47;5087576;28;20044;-85
2023/12/25 01:46:41;;;;;;;27.55;17.20;;;;;;;9.06;63.96;100847.19;5068671;28;20044;-84
2023/12/25 01:49:31;;;;;;;34.50;17.30;;;;;;;9.06;62.68;100834.41;5071767;28;20498;-85
2023/12/25 01:52:27;;;;;;;29.70;19.55;;;;;;;8.93;64.44;100844.19;5088975;28;20043;-85
2023/12/25 01:55:21;;;;;;;34.53;19.35;;;;;;;9.06;64.52;100839.03;5067864;28;20422;-85
2023/12/25 01:58:13;;;;;;;28.15;17.33;;;;;;;9.28;63.13;100837.22;5099189;28;20036;-85
2023/12/25 02:01:07;;;;;;;31.23;16.85;;;;;;;8.98;63.44;100835.13;5073832;28;20044;-85
2023/12/25 02:04:02;;;;;;;31.10;16.53;;;;;;;9.26;61.54;100827.78;5086591;28;20044;-85
2023/12/25 02:06:56;;;;;;;25.85;13.20;;;;;;;8.79;62.90;100832.50;5088803;28;20052;-84
2023/12/25 02:09:52;;;;;;;24.63;14.48;;;;;;;8.76;63.02;100835.00;5071330;28;20744;-84
2023/12/25 02:12:47;;;;;;;24.02;13.00;;;;;;;8.49;62.31;100830.34;5074070;28;20047;-85
2023/12/25 02:15:38;;;;;;;19.52;11.02;;;;;;;8.69;62.21;100831.88;5082506;28;20073;-84
2023/12/25 02:18:31;;;;;;;18.47;12.47;;;;;;;8.54;62.59;100827.56;5074407;28;20049;-85
2023/12/25 02:21:23;;;;;;;17.70;11.73;;;;;;;8.54;61.91;100824.84;5069667;28;20050;-85
2023/12/25 02:24:24;;;;;;;18.65;9.80;;;;;;;8.91;61.26;100823.88;5067211;28;20051;-84
2023/12/25 02:27:16;;;;;;;21.42;12.68;;;;;;;9.17;60.41;100826.88;5070819;28;20060;-84
2023/12/25 02:30:11;;;;;;;21.48;11.60;;;;;;;9.07;60.07;100814.34;5073769;28;20040;-85
2023/12/25 02:33:04;;;;;;;19.63;12.68;;;;;;;9.06;61.84;100820.06;5100391;28;20036;-84
2023/12/25 02:35:55;;;;;;;22.25;13.50;;;;;;;8.93;62.64;100817.06;5073595;28;20036;-84
2023/12/25 02:38:44;;;;;;;28.40;17.05;;;;;;;9.04;61.68;100820.34;5073856;28;20063;-84
2023/12/25 02:41:39;;;;;;;36.58;18.33;;;;;;;9.12;62.16;100811.53;5084797;28;20045;-84
2023/12/25 02:44:31;;;;;;;25.25;14.55;;;;;;;9.22;60.89;100826.78;5068913;28;20044;-85
2023/12/25 02:47:25;;;;;;;30.73;16.75;;;;;;;9.11;61.97;100826.19;5094889;28;20052;-84
2023/12/25 02:50:19;;;;;;;23.45;12.43;;;;;;;8.65;63.14;100814.63;5069445;28;20068;-84
2023/12/25 02:53:12;;;;;;;26.23;14.20;;;;;;;8.82;64.15;100820.25;5081917;28;20051;-85
2023/12/25 02:56:04;;;;;;;36.40;18.77;;;;;;;8.74;63.80;100826.38;5072785;28;20051;-84
2023/12/25 02:58:54;;;;;;;28.88;18.13;;;;;;;8.74;63.99;100829.06;5081086;28;20070;-84
2023/12/25 03:01:46;;;;;;;26.50;17.95;;;;;;;8.75;64.64;100828.78;5079550;28;20036;-85
2023/12/25 03:04:37;;;;;;;24.17;13.80;;;;;;;8.83;64.14;100833.53;5068372;28;20048;-85
2023/12/25 03:07:35;;;;;;;22.17;13.93;;;;;;;8.98;62.47;100827.00;5087485;28;20044;-85
2023/12/25 03:10:30;;;;;;;21.25;12.93;;;;;;;8.96;61.83;100829.19;5080468;28;20048;-85
2023/12/25 03:13:22;;;;;;;17.05;9.63;;;;;;;8.55;63.92;100824.56;5082721;28;20044;-85
2023/12/25 03:16:14;;;;;;;21.73;11.90;;;;;;;8.62;61.14;100831.50;5071729;28;20055;-85
2023/12/25 03:19:09;;;;;;;18.67;11.50;;;;;;;8.65;61.30;100830.88;5069823;28;20046;-84
2023/12/25 03:22:03;;;;;;;21.35;13.07;;;;;;;8.76;60.49;100832.31;5081967;28;20425;-85
2023/12/25 03:24:55;;;;;;;14.57;9.53;;;;;;;8.95;59.00;100827.59;5096635;28;20044;-85
2023/12/25 03:27:50;;;;;;;19.25;11.90;;;;;;;8.93;60.54;100832.53;5068594;28;20281;-84
2023/12/25 03:30:40;;;;;;;20.50;11.45;;;;;;;9.01;62.33;100834.53;5087114;28;20039;-85
2023/12/25 03:33:34;;;;;;;18.80;11.15;;;;;;;8.99;61.24;100836.72;5086636;28;20531;-84
2023/12/25 03:36:30;;;;;;;18.33;11.13;;;;;;;8.97;61.22;100842.47;5080388;28;20043;-85
2023/12/25 03:39:24;;;;;;;22.13;10.80;;;;;;;8.82;61.19;100850.09;5071645;28;20044;-85
2023/12/25 03:42:17;;;;;;;15.33;9.53;;;;;;;8.61;61.55;100840.72;5080049;28;20052;-84
2023/12/25 03:45:11;;;;;;;20.77;11.52;;;;;;;8.07;64.55;100845.69;5079891;28;20313;-84
2023/12/25 03:48:00;;;;;;;18.33;10.97;;;;;;;8.46;62.60;100823.63;5071709;28;20044;-84
2023/12/25 03:50:53;;;;;;;17.83;11.55;;;;;;;8.63;60.64;100830.41;5081873;28;20039;-84
2023/12/25 03:53:47;;;;;;;20.95;13.18;;;;;;;8.37;62.51;100838.97;5085857;28;20036;-84
2023/12/25 03:56:42;;;;;;;20.05;12.38;;;;;;;8.50;62.49;100835.47;5068684;28;20044;-84
2023/12/25 03:59:36;;;;;;;16.95;11.60;;;;;;;8.67;61.40;100834.09;5080014;28;20043;-84
2023/12/25 04:02:31;;;;;;;20.53;9.83;;;;;;;8.80;61.43;100828.69;5080201;28;20056;-85
2023/12/25 04:05:23;;;;;;;19.30;10.90;;;;;;;8.90;60.80;100831.22;5094720;28;20810;-84
2023/12/25 04:08:18;;;;;;;21.35;12.25;;;;;;;8.83;60.63;100828.09;5071560;28;20274;-86
2023/12/25 04:11:08;;;;;;;24.10;14.63;;;;;;;8.47;62.18;100822.53;5080876;28;20505;-86
2023/12/25 04:14:07;;;;;;;26.70;14.50;;;;;;;7.96;63.15;100827.16;5069106;28;20040;-86
2023/12/25 04:17:00;;;;;;;25.17;14.23;;;;;;;8.10;65.35;100830.72;5069636;28;20481;-85
2023/12/25 04:19:54;;;;;;;29.73;15.90;;;;;;;8.37;63.77;100820.00;5081173;28;20040;-85
2023/12/25 04:22:49;;;;;;;22.13;13.43;;;;;;;8.27;61.91;100825.56;5079536;28;20048;-85
2023/12/25 04:25:44;;;;;;;17.25;9.85;;;;;;;7.99;63.25;100823.84;5078470;28;20290;-85
2023/12/25 04:28:36;;;;;;;21.97;10.23;;;;;;;7.97;63.47;100826.06;5079661;28;20051;-86
2023/12/25 04:31:31;;;;;;;19.55;12.40;;;;;;;7.69;64.44;100828.63;5069447;28;20040;-86
2023/12/25 04:34:25;;;;;;;18.98;9.40;;;;;;;7.32;65.37;100829.41;5081846;28;20040;-85
2023/12/25 04:37:19;;;;;;;18.63;8.82;;;;;;;7.26;64.18;100829.78;5080076;28;20052;-85
2023/12/25 04:40:15;;;;;;;10.07;6.47;;;;;;;7.41;63.60;100836.91;5069922;28;20111;-85
2023/12/25 04:43:10;;;;;;;16.63;8.40;;;;;;;7.39;63.40;100845.31;5081412;28;20044;-86
2023/12/25 04:46:02;;;;;;;9.47;5.90;;;;;;;7.15;64.92;100841.81;5084248;28;20052;-85
2023/12/25 04:48:54;;;;;;;15.20;8.25;;;;;;;7.43;63.25;100835.50;5084819;28;20055;-85
2023/12/25 04:51:44;;;;;;;14.30;8.50;;;;;;;7.42;63.67;100836.59;5078692;28;20521;-85
2023/12/25 04:54:36;;;;;;;11.52;8.15;;;;;;;7.45;63.93;100841.44;5066535;28;20047;-86
2023/12/25 04:57:28;;;;;;;17.65;9.63;;;;;;;7.50;62.55;100838.66;5084162;28;20413;-85
2023/12/25 05:00:23;;;;;;;12.63;8.45;;;;;;;7.54;62.77;100836.97;5078294;28;20052;-86
2023/12/25 05:03:15;;;;;;;17.07;7.47;;;;;;;7.32;63.23;100840.25;5079519;28;20048;-86
2023/12/25 05:06:09;;;;;;;14.43;8.10;;;;;;;7.39;62.71;100841.78;5083416;28;20285;-85
2023/12/25 05:09:04;;;;;;;15.23;7.90;;;;;;;7.30;62.55;100847.03;5069636;28;20547;-86
2023/12/25 05:11:56;;;;;;;14.85;7.60;;;;;;;7.36;62.66;100840.47;5080984;28;20047;-85
2023/12/25 05:14:48;;;;;;;15.30;9.45;;;;;;;7.40;62.01;100833.38;5066075;28;20056;-85
2023/12/25 05:17:43;;;;;;;18.98;10.38;;;;;;;7.35;61.60;100846.16;5083382;28;20051;-85
2023/12/25 05:20:38;;;;;;;13.20;7.37;;;;;;;7.37;61.94;100854.78;5065218;28;20048;-85
2023/12/25 05:23:33;;;;;;;14.07;7.53;;;;;;;7.39;62.10;100852.59;5084881;28;20282;-85
2023/12/25 05:26:25;;;;;;;14.48;6.50;;;;;;;7.54;60.90;100863.22;5081794;28;20056;-85
2023/12/25 05:29:19;;;;;;;10.18;6.50;;;;;;;7.48;61.39;100864.38;5082933;28;20044;-85
2023/12/25 05:32:09;;;;;;;10.30;6.07;;;;;;;7.53;62.02;100872.44;5088890;28;20043;-85
2023/12/25 05:35:04;;;;;;;16.95;7.40;;;;;;;7.25;63.36;100877.66;5083995;28;20044;-85
2023/12/25 05:37:55;;;;;;;15.73;6.80;;;;;;;7.56;62.16;100869.16;5088873;28;20048;-87
2023/12/25 05:40:50;;;;;;;10.52;6.30;;;;;;;7.36;62.35;100869.44;5088379;28;20059;-87
2023/12/25 05:43:50;;;;;;;10.77;6.45;;;;;;;7.26;62.38;100871.13;5086491;28;20047;-87
2023/12/25 05:46:42;;;;;;;14.17;4.93;;;;;;;7.18;62.48;100869.09;5087310;28;20409;-86
2023/12/25 05:49:37;;;;;;;11.27;6.43;;;;;;;7.30;61.66;100871.38;5084352;28;20281;-86
2023/12/25 05:52:31;;;;;;;11.40;6.13;;;;;;;7.30;62.02;100868.69;5088377;28;20516;-86
2023/12/25 05:55:25;;;;;;;14.20;7.45;;;;;;;7.18;62.32;100877.19;5083122;28;20047;-86
2023/12/25 05:58:20;;;;;;;10.10;6.00;;;;;;;7.18;63.41;100885.31;5088284;28;20143;-85
2023/12/25 06:01:13;;;;;;;13.02;6.85;;;;;;;7.38;61.68;100886.97;5088307;28;20401;-87
2023/12/25 06:04:08;;;;;;;14.85;7.88;;;;;;;7.50;62.19;100887.38;5071594;28;20048;-86
2023/12/25 06:06:57;;;;;;;16.20;8.40;;;;;;;7.34;62.16;100888.66;5076893;28;20048;-86
2023/12/25 06:09:52;;;;;;;13.75;8.23;;;;;;;7.38;62.83;100888.84;5087210;28;20532;-86
2023/12/25 06:12:44;;;;;;;15.20;8.47;;;;;;;7.34;62.83;100888.66;5084943;28;20043;-86
2023/12/25 06:15:34;;;;;;;15.88;9.18;;;;;;;7.33;63.73;100892.44;5080904;28;20090;-86
2023/12/25 06:18:23;;;;;;;15.57;8.50;;;;;;;7.42;63.46;100900.72;5085938;28;20055;-86
2023/12/25 06:21:17;;;;;;;18.38;8.27;;;;;;;7.56;61.69;100897.03;5083679;28;20067;-86
2023/12/25 06:24:10;;;;;;;16.00;8.30;;;;;;;7.60;62.67;100897.25;5086144;28;20044;-86
2023/12/25 06:27:02;;;;;;;15.82;7.80;;;;;;;7.66;62.30;100896.91;5084916;28;20413;-86
2023/12/25 06:29:57;;;;;;;18.75;8.15;;;;;;;7.84;61.29;100910.72;5082385;28;20040;-86
2023/12/25 06:32:51;;;;;;;11.05;6.05;;;;;;;7.95;61.13;100912.19;5086314;28;20051;-86
2023/12/25 06:35:46;;;;;;;13.70;7.30;;;;;;;8.03;61.11;100914.22;5081348;28;20040;-86
2023/12/25 06:38:38;;;;;;;15.13;8.15;;;;;;;7.84;61.40;100913.44;5082005;28;20048;-86
2023/12/25 06:41:30;;;;;;;13.13;8.30;;;;;;;7.77;62.62;100921.94;5083977;28;20413;-86
2023/12/25 06:44:24;;;;;;;17.70;8.60;;;;;;;7.98;63.45;100917.81;5082060;28;20059;-86
2023/12/25 06:47:22;;;;;;;10.33;5.77;;;;;;;8.28;62.43;100934.75;5085971;28;20059;-86
2023/12/25 06:50:17;;;;;;;15.07;8.13;;;;;;;8.30;61.91;100930.66;5083710;28;20050;-86
2023/12/25 06:53:09;;;;;;;13.70;7.80;;;;;;;7.79;63.09;100935.16;5082762;28;20055;-86
2023/12/25 06:55:56;;;;;;;20.58;11.77;;;;;;;7.73;62.09;100924.38;5086200;28;20528;-86
2023/12/25 06:58:51;;;;;;;19.13;9.40;;;;;;;7.81;61.28;100916.72;5084402;28;20051;-86
2023/12/25 07:01:45;;;;;;;16.10;8.63;;;;;;;7.88;61.11;100922.56;5087343;28;20052;-86
2023/12/25 07:04:40;;;;;;;13.63;8.07;;;;;;;7.90;61.70;100923.91;5084145;28;20056;-86
2023/12/25 07:07:34;;;;;;;14.18;7.65;;;;;;;7.84;61.54;100941.31;5082058;28;20047;-86
2023/12/25 07:10:29;;;;;;;24.48;6.50;;;;;;;7.71;61.12;100937.44;5083007;28;20043;-86
2023/12/25 07:13:24;;;;;;;13.07;8.33;;;;;;;7.86;62.83;100938.31;5081944;28;20068;-85
2023/12/25 07:16:23;;;;;;;17.30;8.93;;;;;;;7.77;61.49;100946.28;5085633;28;20520;-86
2023/12/25 07:19:18;;;;;;;18.35;9.57;;;;;;;7.75;62.01;100953.88;5083695;28;20052;-86
2023/12/25 07:22:16;;;;;;;15.50;9.33;;;;;;;7.30;62.62;100957.94;5080886;28;20051;-86
2023/12/25 07:25:10;;;;;;;18.63;10.60;;;;;;;6.96;64.25;100955.28;5081796;28;20048;-86
2023/12/25 07:28:05;;;;;;;18.00;10.40;;;;;;;6.56;66.41;100948.34;5081951;28;20044;-86
2023/12/25 07:30:59;;;;;;;19.08;9.00;;;;;;;7.05;68.18;100944.69;5084795;28;20520;-86
2023/12/25 07:33:54;;;;;;;16.45;8.60;;;;;;;7.17;66.63;100943.19;5083049;28;20052;-85
2023/12/25 07:36:49;;;;;;;20.37;10.57;;;;;;;7.46;66.81;100948.56;5081274;28;20040;-86
2023/12/25 07:39:47;;;;;;;15.98;9.35;;;;;;;7.67;66.69;100958.03;5064836;28;20282;-87
2023/12/25 07:42:39;;;;;;;19.80;11.73;;;;;;;7.81;66.00;100957.34;5062583;28;20052;-86
2023/12/25 07:45:33;;;;;;;18.55;11.05;;;;;;;7.94;65.78;100956.59;5061428;28;20052;-86
2023/12/25 07:48:28;;;;;;;23.83;11.15;;;;;;;7.91;64.56;100962.63;5065671;28;20406;-85
2023/12/25 07:51:23;;;;;;;18.95;10.52;;;;;;;7.89;63.98;100962.09;5064583;28;20037;-85
2023/12/25 07:54:21;;;;;;;24.50;10.75;;;;;;;7.66;64.86;100961.03;5062960;28;20052;-84
2023/12/25 07:57:15;;;;;;;29.10;11.17;;;;;;;7.52;65.16;100966.31;5080720;28;20040;-85
2023/12/25 08:00:12;;;;;;;21.77;12.82;;;;;;;7.54;65.29;100972.28;5085306;28;20037;-86
2023/12/25 08:03:04;;;;;;;21.15;11.30;;;;;;;7.45;66.63;100982.13;5081113;28;20051;-86
2023/12/25 08:05:59;;;;;;;21.75;12.25;;;;;;;7.43;67.31;100976.19;5084930;28;20041;-86
2023/12/25 08:08:51;;;;;;;20.85;10.15;;;;;;;7.32;68.35;100980.09;5085073;28;20040;-86
2023/12/25 08:11:46;;;;;;;27.40;12.57;;;;;;;7.39;68.90;100983.25;5085569;28;20059;-84
2023/12/25 08:14:41;;;;;;;16.93;10.07;;;;;;;7.44;68.94;100985.91;5079096;28;20040;-85
2023/12/25 08:17:33;;;;;;;20.23;11.50;;;;;;;7.58;69.63;100997.66;5078685;28;20047;-85
2023/12/25 08:20:28;;;;;;;26.42;14.25;;;;;;;7.64;69.37;100996.50;5083441;28;20043;-85
2023/12/25 08:23:20;;;;;;;26.80;14.57;;;;;;;7.68;68.41;100996.72;5084160;28;20040;-86
2023/12/25 08:26:14;;;;;;;22.70;13.27;;;;;;;7.74;68.85;100998.28;5083805;28;20048;-85
2023/12/25 08:29:09;;;;;;;20.67;10.50;;;;;;;7.97;67.81;101002.06;5082271;28;20047;-84
2023/12/25 08:32:01;;;;;;;27.70;14.13;;;;;;;7.99;68.84;101008.00;5075023;28;20055;-84
2023/12/25 08:34:53;;;;;;;52.47;21.38;;;;;;;7.82;70.16;101013.09;5075074;28;20043;-85
2023/12/25 08:37:45;;;;;;;51.47;20.55;;;;;;;7.99;70.35;101010.69;5070851;28;20036;-85
2023/12/25 08:40:40;;;;;;;25.10;11.87;;;;;;;8.07;70.37;101023.59;5068962;28;20043;-84
2023/12/25 08:43:35;;;;;;;20.17;10.30;;;;;;;8.17;69.93;101020.75;5066523;28;20286;-83
2023/12/25 08:46:27;;;;;;;31.88;17.35;;;;;;;8.36;68.91;101023.50;5071126;28;20052;-85
2023/12/25 08:49:19;;;;;;;27.23;14.95;;;;;;;8.20;70.15;101025.59;5064380;28;20032;-84
2023/12/25 08:52:11;;;;;;;38.00;14.80;;;;;;;8.24;71.22;101028.50;5078114;28;20044;-84
2023/12/25 08:55:00;;;;;;;21.77;13.10;;;;;;;8.48;70.49;101034.72;5071779;28;20510;-83
2023/12/25 08:57:52;;;;;;;25.90;12.52;;;;;;;8.48;71.70;101046.34;5074651;28;20043;-82
2023/12/25 09:00:44;;;;;;;25.42;14.90;;;;;;;8.73;70.52;101045.19;5075678;28;20047;-83
2023/12/25 09:03:36;;;;;;;32.35;12.88;;;;;;;8.94;70.19;101051.06;5077118;28;20503;-80
2023/12/25 09:06:31;;;;;;;27.67;13.75;;;;;;;9.07;69.60;101060.38;5075042;28;20540;-83
2023/12/25 09:09:23;;;;;;;18.83;9.50;;;;;;;9.15;69.10;101057.78;5080583;28;20047;-84
2023/12/25 09:12:17;;;;;;;24.55;13.02;;;;;;;9.21;68.47;101056.59;5078396;28;20528;-84
2023/12/25 09:15:11;;;;;;;26.05;15.07;;;;;;;9.27;68.70;101060.84;5078374;28;20531;-84
2023/12/25 09:18:04;;;;;;;26.30;11.67;;;;;;;9.28;68.90;101069.78;5072130;28;20032;-85
2023/12/25 09:20:56;;;;;;;23.45;14.38;;;;;;;9.39;68.69;101074.75;5073567;28;20294;-84
2023/12/25 09:23:48;;;;;;;35.23;13.07;;;;;;;9.44;68.55;101077.38;5078468;28;20040;-84
2023/12/25 09:26:43;;;;;;;24.52;15.45;;;;;;;9.54;68.15;101078.28;5067464;28;20287;-85
2023/12/25 09:29:38;;;;;;;32.83;19.47;;;;;;;9.62;67.82;101083.03;5073307;28;20064;-83
2023/12/25 09:32:32;;;;;;;24.40;14.23;;;;;;;9.64;68.30;101073.47;5071283;28;20290;-85
2023/12/25 09:35:27;;;;;;;30.08;18.30;;;;;;;9.72;68.00;101074.69;5065673;28;20505;-85
2023/12/25 09:38:21;;;;;;;35.28;21.08;;;;;;;9.75;68.34;101066.72;5072335;28;20094;-85
2023/12/25 09:41:16;;;;;;;35.17;19.95;;;;;;;9.88;68.23;101062.44;5074544;28;20107;-84
2023/12/25 09:44:08;;;;;;;27.42;14.35;;;;;;;10.08;69.51;101063.94;5062235;28;20056;-80
2023/12/25 09:47:03;;;;;;;31.95;18.33;;;;;;;11.10;61.03;101074.97;5069485;28;20040;-78
2023/12/25 09:49:56;;;;;;;27.37;12.10;;;;;;;11.31;59.67;101074.47;5076097;28;20036;-79
2023/12/25 09:52:50;;;;;;;24.15;15.20;;;;;;;11.61;54.79;101075.59;5068601;28;20040;-78
2023/12/25 09:55:42;;;;;;;29.08;15.95;;;;;;;11.88;53.77;101080.88;5074414;28;20036;-79
2023/12/25 09:58:38;;;;;;;26.17;16.25;;;;;;;11.88;55.84;101078.16;5081172;28;20041;-79
2023/12/25 10:01:33;;;;;;;27.10;16.08;;;;;;;12.03;55.35;101076.91;5079318;28;20044;-78
2023/12/25 10:04:29;;;;;;;35.72;18.05;;;;;;;12.25;56.11;101072.16;5077356;28;20044;-78
2023/12/25 10:07:24;;;;;;;32.08;17.30;;;;;;;12.82;60.62;101081.03;5079905;28;20044;-78
2023/12/25 10:10:16;;;;;;;80.57;25.37;;;;;;;13.59;63.67;101082.91;5077959;28;20044;-78
2023/12/25 10:13:08;;;;;;;30.08;18.70;;;;;;;14.35;65.45;101079.31;5076201;28;20033;-79
2023/12/25 10:16:03;;;;;;;31.25;19.65;;;;;;;14.81;64.31;101068.22;5076316;28;20033;-78
2023/12/25 10:18:57;;;;;;;31.63;18.27;;;;;;;15.45;63.41;101066.97;5087479;28;20036;-79
2023/12/25 10:21:52;;;;;;;26.73;17.48;;;;;;;16.01;63.07;101065.34;5082619;28;20040;-78
2023/12/25 10:24:44;;;;;;;28.50;15.98;;;;;;;16.43;62.22;101061.19;5089260;28;20425;-79
2023/12/25 10:27:43;;;;;;;31.45;19.30;;;;;;;16.95;60.78;101063.94;5077038;28;20048;-79
2023/12/25 10:30:35;;;;;;;35.90;19.38;;;;;;;17.34;59.06;101072.47;5080991;28;20410;-78
2023/12/25 10:33:30;;;;;;;31.55;19.60;;;;;;;17.69;57.87;101059.66;5077546;28;20032;-79
2023/12/25 10:36:26;;;;;;;31.50;19.73;;;;;;;18.13;55.66;101059.56;5083543;28;20036;-79
2023/12/25 10:39:27;;;;;;;34.72;20.52;;;;;;;18.46;53.24;101043.41;5077951;28;20041;-79
2023/12/25 10:42:22;;;;;;;38.05;20.98;;;;;;;23.46;36.20;101053.03;5086541;28;20070;-83
2023/12/25 10:45:14;;;;;;;29.13;18.30;;;;;;;27.64;27.37;101050.09;5076009;28;20413;-82
2023/12/25 10:48:11;;;;;;;32.58;20.38;;;;;;;29.62;24.58;101045.34;5076905;28;20044;-83
2023/12/25 10:51:03;;;;;;;34.77;18.77;;;;;;;31.61;21.54;101057.41;5079810;28;20409;-83
2023/12/25 10:53:51;;;;;;;27.92;19.17;;;;;;;32.32;20.30;101046.56;5077756;28;20048;-84
2023/12/25 10:56:43;;;;;;;29.33;18.30;;;;;;;33.93;19.50;101055.53;5073962;28;20032;-85
2023/12/25 10:59:37;;;;;;;24.75;18.23;;;;;;;34.21;18.44;101052.78;5075941;28;20037;-84
2023/12/25 11:02:36;;;;;;;25.38;18.30;;;;;;;26.67;26.17;101044.22;5079573;28;20040;-85
2023/12/25 11:05:26;;;;;;;;;;;;;;;22.82;32.84;101029.81;5077899;28;20489;-84
2023/12/25 11:08:21;;;;;;;32.35;22.17;;;;;;;20.90;36.38;101017.22;5079073;28;19912;-85
2023/12/25 11:11:16;;;;;;;32.95;18.80;;;;;;;19.76;39.68;101018.78;5075137;28;20049;-83
2023/12/25 11:14:10;;;;;;;32.10;18.60;;;;;;;18.99;41.74;101010.69;5080139;28;20409;-84
2023/12/25 11:17:05;;;;;;;26.45;18.67;;;;;;;18.31;43.86;101005.69;5067357;28;20037;-82
2023/12/25 11:20:02;;;;;;;26.00;17.50;;;;;;;17.97;45.48;101001.81;5074728;28;20588;-84
2023/12/25 11:22:58;;;;;;;27.67;17.40;;;;;;;17.69;45.49;100995.59;5077718;28;20040;-84
2023/12/25 11:25:48;;;;;;;33.80;18.80;;;;;;;17.36;46.66;100993.19;5074384;28;20433;-84
2023/12/25 11:28:43;;;;;;;27.75;18.17;;;;;;;17.10;48.31;100991.75;5079276;28;20509;-84
2023/12/25 11:31:49;;;;;;;28.52;17.58;;;;;;;16.94;48.28;100988.16;5076862;28;20400;-84
2023/12/25 11:34:43;;;;;;;26.42;17.83;;;;;;;16.83;48.84;100981.59;5077748;28;20048;-84
2023/12/25 11:37:38;;;;;;;27.83;19.15;;;;;;;16.84;48.87;100987.88;5077725;28;20033;-83
2023/12/25 11:40:44;;;;;;;33.75;18.70;;;;;;;16.73;49.02;100976.59;5075723;28;20040;-84
2023/12/25 11:43:31;;;;;;;;;;;;;;;16.74;48.95;100977.41;5078813;28;20040;-84
2023/12/25 11:46:29;;;;;;;33.47;18.38;;;;;;;16.80;48.94;100976.81;5076875;28;19920;-83
2023/12/25 11:49:28;;;;;;;36.47;17.25;;;;;;;16.81;48.73;100977.59;5080101;28;20036;-83
2023/12/25 11:52:55;;;;;;;30.40;16.98;;;;;;;16.73;48.81;100978.53;5077100;28;20493;-84
2023/12/25 11:55:50;;;;;;;28.38;17.92;;;;;;;16.73;49.53;100968.34;5079833;28;20036;-84
2023/12/25 11:58:45;;;;;;;29.15;19.55;;;;;;;16.71;49.74;100969.88;5077715;28;20040;-84
2023/12/25 12:01:39;;;;;;;27.35;18.23;;;;;;;16.76;49.61;100967.66;5074469;28;20405;-84
2023/12/25 12:04:34;;;;;;;19.73;13.70;;;;;;;16.86;49.03;100961.69;5078484;28;20044;-83
2023/12/25 12:07:28;;;;;;;29.77;18.88;;;;;;;16.72;49.31;100968.69;5076341;28;20036;-84
2023/12/25 12:10:23;;;;;;;27.17;18.08;;;;;;;16.90;48.80;100970.00;5077851;28;20048;-84
2023/12/25 12:13:17;;;;;;;31.17;18.73;;;;;;;16.68;49.55;100963.13;5077338;28;20040;-83
2023/12/25 12:16:12;;;;;;;34.55;21.30;;;;;;;16.57;49.32;100964.72;5074627;28;20049;-83
2023/12/25 12:19:04;;;;;;;35.72;20.95;;;;;;;16.70;49.65;100971.81;5078912;28;20417;-84
2023/12/25 12:21:59;;;;;;;38.28;21.08;;;;;;;16.57;49.47;100959.22;5076361;28;20040;-84
2023/12/25 12:24:51;;;;;;;33.08;19.25;;;;;;;16.55;49.86;100953.31;5074459;28;20040;-84
2023/12/25 12:27:46;;;;;;;37.58;21.98;;;;;;;16.52;50.17;100949.31;5076533;28;20474;-84
2023/12/25 12:30:41;;;;;;;31.90;19.65;;;;;;;16.61;50.04;100951.91;5074372;28;20040;-83
2023/12/25 12:33:35;;;;;;;22.95;14.38;;;;;;;16.73;49.18;100954.63;5078415;28;20037;-84
2023/12/25 12:36:30;;;;;;;25.42;17.85;;;;;;;16.60;49.70;100951.16;5076238;28;20482;-84
2023/12/25 12:39:22;;;;;;;34.25;18.95;;;;;;;16.84;49.36;100954.91;5083918;28;20044;-83
2023/12/25 12:42:17;;;;;;;28.83;16.83;;;;;;;16.87;49.23;100957.75;5081579;28;20044;-84
2023/12/25 12:45:09;;;;;;;39.53;18.50;;;;;;;16.78;49.47;100954.38;5079463;28;20040;-83
2023/12/25 12:48:01;;;;;;;28.65;18.58;;;;;;;16.78;49.58;100945.34;5083130;28;20050;-83
2023/12/25 12:50:51;;;;;;;30.98;17.02;;;;;;;16.89;49.21;100949.16;5080507;28;20036;-84
2023/12/25 12:53:45;;;;;;;30.58;16.83;;;;;;;16.87;49.02;100951.44;5078386;28;20040;-84
2023/12/25 12:56:40;;;;;;;26.73;17.13;;;;;;;16.77;49.22;100950.03;5081841;28;20040;-84
2023/12/25 12:59:32;;;;;;;32.70;17.55;;;;;;;16.81;49.28;100945.41;5079170;28;20045;-82
2023/12/25 13:02:27;;;;;;;44.35;24.98;;;;;;;16.86;49.49;100947.13;5082887;28;20040;-84
2023/12/25 13:05:21;;;;;;;33.87;20.10;;;;;;;16.92;49.34;100949.25;5079467;28;20505;-84
2023/12/25 13:08:16;;;;;;;25.98;12.82;;;;;;;16.94;49.03;100944.22;5077748;28;20044;-84
2023/12/25 13:11:08;;;;;;;33.72;20.30;;;;;;;16.91;49.48;100953.19;5078760;28;20414;-83
2023/12/25 13:13:58;;;;;;;28.33;18.73;;;;;;;16.98;49.88;100950.59;5078780;28;20040;-83
2023/12/25 13:16:55;;;;;;;29.00;18.80;;;;;;;17.01;49.67;100938.91;5082891;28;20300;-83
2023/12/25 13:19:47;;;;;;;27.30;17.80;;;;;;;16.95;50.02;100940.31;5079958;28;20045;-83